FR-0037 weather

Centre Hospitalier Heliport
Chatillon Sur Seine, Burgundy, France

Public forecast

Using degrees Celsius for public forecast. Weather courtesy of forecast.io.

METAR (pilot weather report)

Closest report is Troyes-Barberey Airport, 35.1 nm (65.0 km) NW. Retrieved 2019/09/18 08:30 UTC (0 seconds ago):

LFQB 180830Z AUTO 05012KT 020V080 CAVOK 14/06 Q1024

TAF (pilot weather forecast)

Forecast is more than 12 hours old.

Closest forecast is Dijon-Bourgogne Airport, 41.6 nm (77.1 km) SSE. Retrieved 2015/06/01 00:11 UTC (4 years ago):

TAF LFSD 010600Z 0100/0124 CNL